This is the latest recevied weather packets stored in our database for station/object KXNA. If no packets are shown the sender has not sent any weather packets the latest 1 day(s).
| Time | Temp. | Humidity | Pressure | Rain* | Wind** | Luminosity | Snow |
|---|---|---|---|---|---|---|---|
| 1778119424 | 10.56° C | 62% | 1017.3 hPa | - | - | - | - |
| 1778118824 | 13.89° C | 50% | 1016.6 hPa | - | - | - | - |
| 1778118223 | 13.89° C | 50% | 1016.6 hPa | - | - | - | - |
| 1778117024 | 13.89° C | 50% | 1016.6 hPa | - | - | - | - |
| 1778114626 | 15.56° C | 44% | 1016.3 hPa | - | - | - | - |
| 1778113421 | 15.56° C | 44% | 1016.3 hPa | - | - | - | - |
| 1778112826 | 15.56° C | 44% | 1016.3 hPa | - | - | - | - |
| 1778111625 | 15.56° C | 44% | 1015.9 hPa | - | - | - | - |
| 1778111022 | 15.56° C | 44% | 1015.9 hPa | - | - | - | - |
| 1778109823 | 15.56° C | 44% | 1015.9 hPa | - | - | - | - |
| 1778108024 | 15.56° C | 51% | 1015.2 hPa | - | - | - | - |
| 1778107422 | 15.56° C | 51% | 1015.2 hPa | - | - | - | - |
| 1778105623 | 15.56° C | 51% | 1015.2 hPa | - | - | - | - |
| 1778103223 | 15.56° C | 51% | 1015.9 hPa | - | - | - | - |
| 1778100221 | 15° C | 54% | 1016.6 hPa | - | - | - | - |
| 1778099622 | 15° C | 54% | 1016.6 hPa | - | - | - | - |
| 1778096021 | 13.89° C | 58% | 1016.9 hPa | - | - | - | - |
| 1778095421 | 13.89° C | 58% | 1016.9 hPa | - | - | - | - |
| 1778094822 | 13.89° C | 58% | 1016.9 hPa | - | - | - | - |
| 1778093024 | 12.78° C | 58% | 1018.3 hPa | - | - | - | - |
| 1778092426 | 12.78° C | 58% | 1018.3 hPa | - | - | - | - |
| 1778091825 | 12.78° C | 58% | 1018.3 hPa | - | - | - | - |
| 1778088225 | 11.67° C | 58% | 1018.6 hPa | - | - | - | - |
| 1778085823 | 11.67° C | 66% | 1016.9 hPa | - | - | - | - |
| 1778084625 | 11.67° C | 66% | 1017.3 hPa | - | - | - | - |
* Rain since midnight (hover to see other rain measurements)
** Current wind speed in m/s (hover to see current wind gust speed)